Time;durP1;ratioP1;P1;durP2;ratioP2;P2;SDS_P1;SDS_P2;PMS_P1;PMS_P2;Temp;Humidity;BMP_temperature;BMP_pressure;BME280_temperature;BME280_humidity;BME280_pressure;Samples;Min_cycle;Max_cycle;Signal;HPM_P1;HPM_P2
2022/03/16 00:01:18;;;;;;;14.52;9.05;;;;;;;6.62;81.66;96381.44;6271296;22;20079;-62
2022/03/16 00:03:44;;;;;;;20.77;9.18;;;;;;;6.63;82.13;96385.78;6299905;22;20063;-62
2022/03/16 00:06:09;;;;;;;19.13;9.32;;;;;;;6.54;82.91;96388.97;6300091;22;20007;-62
2022/03/16 00:08:34;;;;;;;17.08;9.30;;;;;;;6.62;81.50;96381.44;6299492;22;20015;-62
2022/03/16 00:11:00;;;;;;;15.95;9.65;;;;;;;6.51;81.63;96383.94;6300210;22;20007;-62
2022/03/16 00:13:25;;;;;;;15.40;9.57;;;;;;;6.45;82.68;96390.41;6299491;22;20070;-62
2022/03/16 00:15:51;;;;;;;15.80;9.23;;;;;;;6.50;82.39;96380.47;6272650;22;20083;-62
2022/03/16 00:18:19;;;;;;;13.98;9.85;;;;;;;6.51;81.96;96389.16;6299390;22;20079;-62
2022/03/16 00:20:45;;;;;;;20.48;10.73;;;;;;;6.39;83.15;96385.56;6299818;22;20011;-62
2022/03/16 00:23:11;;;;;;;21.83;12.35;;;;;;;6.44;83.32;96380.88;6299518;22;20342;-62
2022/03/16 00:25:36;;;;;;;41.83;16.90;;;;;;;6.44;82.77;96373.88;6299741;22;20082;-62
2022/03/16 00:28:01;;;;;;;34.00;14.48;;;;;;;6.42;83.30;96369.69;6300139;22;20007;-62
2022/03/16 00:30:27;;;;;;;26.38;12.85;;;;;;;6.40;83.33;96364.53;6299479;22;20007;-62
2022/03/16 00:32:52;;;;;;;25.92;10.80;;;;;;;6.38;82.70;96369.03;6299172;22;20003;-62
2022/03/16 00:35:17;;;;;;;23.65;10.80;;;;;;;6.36;82.53;96365.69;6299756;22;20430;-61
2022/03/16 00:37:43;;;;;;;27.05;12.70;;;;;;;6.43;81.92;96366.13;6300008;22;20011;-61
2022/03/16 00:40:10;;;;;;;21.67;12.35;;;;;;;6.38;82.62;96373.44;6299828;22;20003;-62
2022/03/16 00:42:35;;;;;;;23.58;11.80;;;;;;;6.30;83.26;96366.06;6299619;22;20026;-62
2022/03/16 00:45:01;;;;;;;27.23;12.02;;;;;;;6.25;83.04;96368.97;6300111;22;20450;-62
2022/03/16 00:47:26;;;;;;;24.25;11.82;;;;;;;6.20;83.68;96368.44;6299554;22;20007;-62
2022/03/16 00:49:52;;;;;;;31.30;13.02;;;;;;;6.26;83.36;96370.66;6299770;22;20078;-62
2022/03/16 00:52:17;;;;;;;22.52;11.18;;;;;;;6.27;83.13;96366.28;6299622;22;20011;-62
2022/03/16 00:54:42;;;;;;;25.83;12.18;;;;;;;6.18;84.17;96357.25;6299516;22;20006;-61
2022/03/16 00:57:08;;;;;;;25.85;11.48;;;;;;;6.17;83.50;96366.03;6299558;22;20553;-62
2022/03/16 00:59:33;;;;;;;26.50;11.88;;;;;;;6.09;84.39;96358.66;6299610;22;20030;-61
2022/03/16 01:01:59;;;;;;;28.88;11.93;;;;;;;6.02;85.40;96360.00;6272398;22;20003;-62
2022/03/16 01:04:24;;;;;;;25.38;11.18;;;;;;;5.94;85.42;96363.06;6298878;22;19999;-61
2022/03/16 01:06:53;;;;;;;29.17;11.05;;;;;;;5.81;86.23;96359.53;6299577;22;20022;-61
2022/03/16 01:09:18;;;;;;;17.45;9.98;;;;;;;5.87;85.39;96369.63;6299424;22;20078;-60
2022/03/16 01:11:43;;;;;;;23.83;10.07;;;;;;;5.84;85.27;96368.03;6299490;22;20514;-59
2022/03/16 01:14:09;;;;;;;16.40;9.05;;;;;;;5.89;85.50;96372.97;6299883;22;20446;-60
2022/03/16 01:16:36;;;;;;;22.98;8.43;;;;;;;5.97;84.68;96369.88;6299237;22;20083;-60
2022/03/16 01:19:02;;;;;;;15.27;8.70;;;;;;;5.95;84.33;96367.34;6299681;22;20004;-60
2022/03/16 01:21:27;;;;;;;12.70;8.57;;;;;;;5.86;85.69;96352.28;6298988;22;20007;-60
2022/03/16 01:23:53;;;;;;;16.17;8.25;;;;;;;5.79;85.82;96348.34;6299764;22;20067;-60
2022/03/16 01:26:18;;;;;;;22.02;7.20;;;;;;;5.80;85.71;96347.41;6299449;22;19999;-60
2022/03/16 01:28:43;;;;;;;14.05;7.65;;;;;;;5.80;85.54;96343.03;6298670;22;20010;-60
2022/03/16 01:31:09;;;;;;;14.30;6.63;;;;;;;5.67;85.54;96344.72;6299353;22;20008;-60
2022/03/16 01:33:34;;;;;;;13.77;6.32;;;;;;;5.54;86.97;96339.44;6271808;22;20007;-60
2022/03/16 01:35:59;;;;;;;12.82;5.97;;;;;;;5.48;87.32;96339.81;6299585;22;20007;-60
2022/03/16 01:38:25;;;;;;;8.13;5.53;;;;;;;5.54;86.95;96334.19;6299055;22;19999;-60
2022/03/16 01:40:50;;;;;;;11.45;6.78;;;;;;;5.63;85.74;96330.19;6299376;22;20019;-60
2022/03/16 01:43:16;;;;;;;11.43;6.35;;;;;;;5.58;87.05;96328.69;6299536;22;20010;-60
2022/03/16 01:45:47;;;;;;;9.13;5.63;;;;;;;5.58;86.78;96333.06;6299236;22;20011;-60
2022/03/16 01:48:13;;;;;;;10.55;5.90;;;;;;;5.47;88.04;96330.28;6299426;22;20034;-60
2022/03/16 01:50:38;;;;;;;10.68;6.30;;;;;;;5.43;87.48;96327.88;6298807;22;20035;-60
2022/03/16 01:53:04;;;;;;;12.27;5.93;;;;;;;5.40;88.16;96325.44;6299436;22;19999;-60
2022/03/16 01:55:30;;;;;;;9.57;5.28;;;;;;;5.41;88.16;96319.28;6299134;22;20005;-60
2022/03/16 01:57:55;;;;;;;9.20;5.57;;;;;;;5.40;88.28;96324.59;6299233;22;20494;-60
2022/03/16 02:00:22;;;;;;;12.80;6.43;;;;;;;5.44;87.70;96320.88;6299124;22;20442;-60
2022/03/16 02:02:47;;;;;;;10.82;5.60;;;;;;;5.43;87.69;96319.19;6299441;22;20463;-60
2022/03/16 02:05:13;;;;;;;12.07;6.28;;;;;;;5.47;87.59;96315.44;6299061;22;20004;-60
2022/03/16 02:07:41;;;;;;;8.68;5.60;;;;;;;5.49;88.07;96320.59;6299035;22;20332;-61
2022/03/16 02:10:07;;;;;;;13.55;6.10;;;;;;;5.38;88.30;96318.63;6298925;22;20391;-60
2022/03/16 02:12:47;;;;;;;9.70;5.55;;;;;;;5.34;88.34;96323.22;6299335;22;20074;-60
2022/03/16 02:15:13;;;;;;;11.73;5.53;;;;;;;5.32;87.86;96314.63;6298879;22;20063;-61
2022/03/16 02:17:38;;;;;;;8.07;5.13;;;;;;;5.37;88.19;96315.19;6271892;22;20012;-60
2022/03/16 02:20:05;;;;;;;10.57;5.88;;;;;;;5.38;88.28;96318.63;6299305;22;20027;-60
2022/03/16 02:22:34;;;;;;;9.27;6.15;;;;;;;5.34;88.38;96315.38;6298923;22;20094;-60
2022/03/16 02:25:00;;;;;;;10.32;6.75;;;;;;;5.32;88.74;96311.19;6299250;22;20000;-60
2022/03/16 02:27:25;;;;;;;11.40;6.30;;;;;;;5.28;88.47;96308.75;6299006;22;20071;-60
2022/03/16 02:29:51;;;;;;;10.40;6.32;;;;;;;5.29;88.19;96310.41;6298669;22;20007;-60
2022/03/16 02:32:16;;;;;;;8.07;5.93;;;;;;;5.29;87.98;96318.25;6298856;22;20069;-59
2022/03/16 02:34:41;;;;;;;6.95;5.45;;;;;;;5.23;88.36;96328.25;6298598;22;20003;-59
2022/03/16 02:37:07;;;;;;;8.32;5.18;;;;;;;5.10;89.05;96336.00;6298721;22;20007;-60
2022/03/16 02:39:32;;;;;;;8.25;5.13;;;;;;;5.04;88.64;96333.72;6299006;22;20011;-60
2022/03/16 02:41:58;;;;;;;8.13;5.43;;;;;;;5.05;88.20;96338.88;6300355;22;20000;-60
2022/03/16 02:44:23;;;;;;;9.82;5.85;;;;;;;5.04;89.13;96338.94;6300155;22;20106;-60
2022/03/16 02:46:49;;;;;;;10.73;6.05;;;;;;;5.13;89.39;96333.19;6300850;22;20004;-60
2022/03/16 02:49:14;;;;;;;12.98;5.63;;;;;;;5.08;89.91;96333.47;6300010;22;20079;-60
2022/03/16 02:51:39;;;;;;;10.05;5.35;;;;;;;4.98;90.12;96327.13;6300038;22;20007;-60
2022/03/16 02:54:05;;;;;;;11.15;5.78;;;;;;;4.95;90.11;96329.91;6300368;22;20026;-59
2022/03/16 02:56:30;;;;;;;11.10;5.10;;;;;;;4.93;89.80;96332.63;6300061;22;20005;-60
2022/03/16 02:58:56;;;;;;;6.90;5.35;;;;;;;4.93;89.78;96331.75;6300204;22;20066;-60
2022/03/16 03:01:22;;;;;;;13.95;5.88;;;;;;;4.92;89.62;96330.09;6299911;22;20043;-60
2022/03/16 03:03:47;;;;;;;10.27;6.53;;;;;;;4.91;90.17;96329.25;6300372;22;20011;-60
2022/03/16 03:06:13;;;;;;;9.55;5.97;;;;;;;4.91;90.46;96323.19;6300104;22;20457;-60
2022/03/16 03:08:38;;;;;;;12.88;5.53;;;;;;;4.90;89.81;96329.34;6299659;22;20406;-60
2022/03/16 03:11:03;;;;;;;10.50;5.22;;;;;;;4.93;89.79;96326.53;6300005;22;20022;-59
2022/03/16 03:13:29;;;;;;;7.95;5.28;;;;;;;4.90;89.70;96321.50;6299960;22;20011;-60
2022/03/16 03:15:54;;;;;;;7.65;5.45;;;;;;;4.95;89.86;96330.75;6300354;22;20113;-60
2022/03/16 03:18:19;;;;;;;10.25;5.93;;;;;;;4.87;90.77;96325.16;6300037;22;20116;-60
2022/03/16 03:20:45;;;;;;;8.05;5.65;;;;;;;4.77;91.85;96317.03;6299844;22;20346;-60
2022/03/16 03:23:10;;;;;;;8.90;5.18;;;;;;;4.76;91.04;96314.50;6299659;22;20007;-60
2022/03/16 03:25:36;;;;;;;10.95;5.72;;;;;;;4.82;90.77;96328.03;6299937;22;20011;-60
2022/03/16 03:28:01;;;;;;;11.60;7.00;;;;;;;4.81;90.37;96322.88;6300187;22;20029;-62
2022/03/16 03:30:26;;;;;;;8.90;5.63;;;;;;;4.80;90.32;96324.69;6299557;22;20510;-60
2022/03/16 03:32:52;;;;;;;10.88;5.22;;;;;;;4.82;90.02;96325.41;6299065;22;20488;-62
2022/03/16 03:35:17;;;;;;;13.18;6.15;;;;;;;4.74;89.89;96327.63;6299612;22;19995;-62
2022/03/16 03:37:42;;;;;;;7.88;4.80;;;;;;;4.66;90.15;96327.25;6272015;22;20439;-61
2022/03/16 03:40:08;;;;;;;8.45;4.95;;;;;;;4.63;90.79;96330.03;6299938;22;20059;-62
2022/03/16 03:42:34;;;;;;;10.20;5.03;;;;;;;4.61;90.77;96329.28;6298539;22;20040;-61
2022/03/16 03:44:59;;;;;;;6.05;5.45;;;;;;;4.59;91.22;96326.75;6299580;22;20006;-62
2022/03/16 03:47:24;;;;;;;11.63;6.10;;;;;;;4.60;91.03;96325.81;6300527;22;20519;-61
2022/03/16 03:49:50;;;;;;;11.15;5.57;;;;;;;4.59;91.03;96325.00;6299999;22;20091;-60
2022/03/16 03:52:15;;;;;;;9.32;4.68;;;;;;;4.64;90.80;96329.97;6299703;22;20007;-62
2022/03/16 03:54:40;;;;;;;5.80;4.82;;;;;;;4.68;90.87;96330.59;6300515;22;20051;-62
2022/03/16 03:57:06;;;;;;;8.63;4.97;;;;;;;4.69;91.27;96338.34;6300169;22;20768;-61
2022/03/16 03:59:31;;;;;;;7.70;4.97;;;;;;;4.61;91.29;96337.13;6300153;22;20048;-61
2022/03/16 04:01:57;;;;;;;7.90;4.68;;;;;;;4.59;91.24;96325.00;6300353;22;20083;-62
2022/03/16 04:04:23;;;;;;;6.80;5.03;;;;;;;4.54;91.52;96329.66;6300075;22;20014;-60
2022/03/16 04:06:48;;;;;;;6.57;4.65;;;;;;;4.56;91.33;96332.16;6300090;22;20012;-61
2022/03/16 04:09:13;;;;;;;9.23;4.85;;;;;;;4.53;91.64;96327.13;6300104;22;20011;-62
2022/03/16 04:11:39;;;;;;;6.63;4.65;;;;;;;4.49;91.93;96328.22;6300090;22;20490;-62
2022/03/16 04:14:05;;;;;;;5.25;4.60;;;;;;;4.48;91.69;96335.19;6300433;22;20003;-62
2022/03/16 04:16:31;;;;;;;6.18;5.00;;;;;;;4.44;91.44;96328.50;6299729;22;20015;-61
2022/03/16 04:18:56;;;;;;;10.55;4.93;;;;;;;4.48;90.76;96322.16;6299951;22;20007;-61
2022/03/16 04:21:22;;;;;;;8.65;4.88;;;;;;;4.50;91.33;96329.91;6299125;22;20103;-61
2022/03/16 04:23:47;;;;;;;12.57;5.53;;;;;;;4.46;91.38;96318.81;6299873;22;20078;-62
2022/03/16 04:26:13;;;;;;;11.77;5.50;;;;;;;4.43;91.76;96317.25;6300103;22;20003;-61
2022/03/16 04:28:38;;;;;;;9.23;6.65;;;;;;;4.40;92.16;96316.56;6300050;22;20003;-62
2022/03/16 04:31:04;;;;;;;11.20;7.85;;;;;;;4.43;91.94;96322.44;6299632;22;20003;-61
2022/03/16 04:33:29;;;;;;;11.15;9.50;;;;;;;4.44;91.83;96315.44;6272449;22;20007;-62
2022/03/16 04:35:55;;;;;;;18.35;13.80;;;;;;;4.39;91.59;96320.09;6299345;22;20010;-61
2022/03/16 04:38:21;;;;;;;22.13;13.32;;;;;;;4.34;91.68;96319.53;6272744;22;20388;-61
2022/03/16 04:40:47;;;;;;;11.38;9.23;;;;;;;4.30;91.50;96317.06;6299631;22;20003;-61
2022/03/16 04:43:12;;;;;;;15.02;10.70;;;;;;;4.29;91.71;96314.56;6299738;22;20031;-62
2022/03/16 04:45:39;;;;;;;10.40;9.40;;;;;;;4.29;91.49;96312.78;6299948;22;20431;-62
2022/03/16 04:48:08;;;;;;;14.20;10.00;;;;;;;4.28;91.70;96308.50;6299937;22;20004;-61
2022/03/16 04:50:34;;;;;;;10.50;8.70;;;;;;;4.25;91.79;96313.06;6299541;22;20013;-61
2022/03/16 04:53:00;;;;;;;9.98;8.70;;;;;;;4.19;90.72;96305.59;6299799;22;20003;-61
2022/03/16 04:55:25;;;;;;;16.08;9.10;;;;;;;4.13;91.31;96301.59;6300354;22;20441;-61
2022/03/16 04:57:51;;;;;;;9.82;7.43;;;;;;;4.14;91.68;96303.25;6300110;22;20431;-60
2022/03/16 05:00:16;;;;;;;9.85;6.88;;;;;;;4.12;92.14;96305.13;6300179;22;20055;-62
2022/03/16 05:02:41;;;;;;;10.85;7.57;;;;;;;4.09;91.83;96303.50;6299008;22;20009;-61
2022/03/16 05:05:08;;;;;;;10.45;6.63;;;;;;;4.10;92.72;96306.97;6298998;22;20039;-61
2022/03/16 05:07:34;;;;;;;8.18;6.65;;;;;;;4.16;92.59;96307.44;6299726;22;20336;-61
2022/03/16 05:09:59;;;;;;;7.00;5.95;;;;;;;4.15;92.74;96300.53;6299791;22;20091;-60
2022/03/16 05:12:24;;;;;;;6.72;5.78;;;;;;;4.11;92.07;96301.66;6299670;22;20023;-60
2022/03/16 05:14:50;;;;;;;12.60;6.57;;;;;;;4.08;92.47;96298.38;6299753;22;20034;-61
2022/03/16 05:17:15;;;;;;;8.15;7.32;;;;;;;4.05;93.07;96295.94;6298911;22;20004;-60
2022/03/16 05:19:41;;;;;;;7.78;6.85;;;;;;;4.03;92.99;96296.06;6299600;22;20003;-62
2022/03/16 05:22:06;;;;;;;13.55;6.53;;;;;;;4.06;93.05;96295.88;6299698;22;20007;-61
2022/03/16 05:24:32;;;;;;;9.35;7.72;;;;;;;4.06;92.73;96288.06;6298873;22;20008;-62
2022/03/16 05:26:57;;;;;;;9.25;6.90;;;;;;;4.05;93.29;96294.19;6299736;22;20043;-61
2022/03/16 05:29:22;;;;;;;8.98;7.20;;;;;;;4.08;93.12;96285.34;6299254;22;20011;-61
2022/03/16 05:31:48;;;;;;;9.30;7.05;;;;;;;4.11;92.95;96293.00;6299608;22;20003;-61
2022/03/16 05:34:13;;;;;;;10.68;6.65;;;;;;;4.16;92.55;96290.97;6299562;22;20539;-62
2022/03/16 05:36:38;;;;;;;9.27;6.43;;;;;;;4.11;92.92;96299.06;6299616;22;20082;-62
2022/03/16 05:39:04;;;;;;;10.38;6.00;;;;;;;4.07;92.83;96294.09;6298949;22;20500;-62
2022/03/16 05:41:30;;;;;;;10.63;7.18;;;;;;;4.03;93.22;96288.22;6299096;22;20342;-62
2022/03/16 05:43:55;;;;;;;13.55;7.30;;;;;;;4.05;93.31;96290.72;6299648;22;20003;-62
2022/03/16 05:46:21;;;;;;;9.00;6.78;;;;;;;4.02;93.74;96291.75;6299957;22;20063;-62
2022/03/16 05:48:47;;;;;;;15.18;7.43;;;;;;;3.97;93.95;96296.38;6299552;22;20007;-61
2022/03/16 05:51:12;;;;;;;20.17;8.13;;;;;;;3.94;94.92;96296.53;6299888;22;20015;-62
2022/03/16 05:53:37;;;;;;;13.35;7.53;;;;;;;3.95;94.59;96290.41;6299479;22;20078;-62
2022/03/16 05:56:03;;;;;;;16.60;7.68;;;;;;;4.04;93.90;96289.06;6299617;22;20003;-62
2022/03/16 05:58:28;;;;;;;13.77;7.03;;;;;;;4.11;93.35;96288.63;6299398;22;20003;-62
2022/03/16 06:00:54;;;;;;;13.48;6.90;;;;;;;4.21;92.97;96286.34;6298339;22;19999;-62
2022/03/16 06:03:19;;;;;;;15.75;7.30;;;;;;;4.27;92.67;96283.38;6299568;22;20007;-62
2022/03/16 06:05:45;;;;;;;15.43;7.20;;;;;;;4.32;92.88;96283.09;6299374;22;20042;-62
2022/03/16 06:08:10;;;;;;;10.43;6.97;;;;;;;4.31;92.94;96284.03;6299196;22;20475;-62
2022/03/16 06:10:36;;;;;;;9.63;6.85;;;;;;;4.28;93.32;96284.22;6271752;22;20335;-62
2022/03/16 06:13:03;;;;;;;19.08;6.60;;;;;;;4.30;93.20;96277.97;6298700;22;20483;-62
2022/03/16 06:15:36;;;;;;;9.68;6.65;;;;;;;4.35;92.81;96275.09;6299377;22;20009;-62
2022/03/16 06:18:02;;;;;;;14.57;6.68;;;;;;;4.39;93.20;96281.81;6300595;22;20008;-62
2022/03/16 06:20:28;;;;;;;17.15;9.43;;;;;;;4.43;92.79;96275.53;6273309;22;20007;-62
2022/03/16 06:22:54;;;;;;;13.75;8.32;;;;;;;4.48;92.87;96285.66;6301026;22;20027;-61
2022/03/16 06:25:20;;;;;;;13.52;8.07;;;;;;;4.52;92.97;96281.94;6300558;22;20003;-62
2022/03/16 06:27:46;;;;;;;15.43;8.02;;;;;;;4.55;92.98;96292.22;6300538;22;20003;-62
2022/03/16 06:30:11;;;;;;;15.40;7.82;;;;;;;4.52;93.50;96289.75;6272722;22;20018;-61
2022/03/16 06:32:37;;;;;;;13.45;9.05;;;;;;;4.50;94.03;96291.63;6300727;22;20453;-62
2022/03/16 06:35:05;;;;;;;23.02;9.40;;;;;;;4.58;94.29;96285.97;6300506;22;20133;-61
2022/03/16 06:37:31;;;;;;;15.48;8.82;;;;;;;4.67;94.08;96285.44;6300699;22;20007;-62
2022/03/16 06:39:56;;;;;;;10.50;8.27;;;;;;;4.77;94.56;96285.72;6300256;22;20008;-62
2022/03/16 06:42:22;;;;;;;13.77;8.63;;;;;;;4.91;93.75;96291.88;6300195;22;20059;-62
2022/03/16 06:44:47;;;;;;;13.27;9.10;;;;;;;5.03;93.76;96291.16;6300555;22;20007;-61
2022/03/16 06:47:12;;;;;;;15.88;8.57;;;;;;;5.08;93.71;96291.69;6297622;22;20431;-62
2022/03/16 06:49:38;;;;;;;15.98;8.15;;;;;;;5.13;92.97;96292.25;6296386;22;20078;-62
2022/03/16 06:52:03;;;;;;;15.90;9.80;;;;;;;5.27;92.22;96293.19;6297849;22;20015;-61
2022/03/16 06:54:29;;;;;;;15.02;8.50;;;;;;;5.39;91.31;96300.25;6298854;22;20078;-61
2022/03/16 06:56:54;;;;;;;20.58;8.80;;;;;;;5.48;91.00;96306.69;6299601;22;20003;-62
2022/03/16 06:59:20;;;;;;;16.00;8.52;;;;;;;5.47;92.34;96312.03;6298829;22;20457;-62
2022/03/16 07:01:45;;;;;;;11.10;8.38;;;;;;;5.52;91.89;96308.16;6299621;22;20003;-62
2022/03/16 07:04:10;;;;;;;18.63;8.25;;;;;;;5.66;90.96;96306.47;6299784;22;20052;-62
2022/03/16 07:06:36;;;;;;;13.70;7.18;;;;;;;5.82;90.02;96301.09;6299508;22;20453;-62
2022/03/16 07:09:02;;;;;;;15.60;8.18;;;;;;;5.89;89.49;96291.97;6300108;22;20447;-63
2022/03/16 07:11:28;;;;;;;16.02;7.05;;;;;;;6.02;88.77;96284.19;6299159;22;20451;-51
2022/03/16 07:16:37;;;;;;;19.55;7.43;;;;;;;6.19;88.70;96290.94;6300433;22;20048;-52
2022/03/16 07:19:02;;;;;;;11.23;8.05;;;;;;;6.25;88.76;96285.31;6299804;22;20007;-52
2022/03/16 07:21:27;;;;;;;12.43;7.75;;;;;;;6.26;88.88;96286.97;6300278;22;20008;-50
2022/03/16 07:23:53;;;;;;;13.45;7.88;;;;;;;6.38;88.20;96293.19;6298684;22;20074;-54
2022/03/16 07:26:18;;;;;;;15.75;8.02;;;;;;;6.50;88.98;96288.09;6298338;22;19999;-52
2022/03/16 07:28:44;;;;;;;19.30;7.45;;;;;;;6.57;88.62;96292.81;6298773;22;20363;-54
2022/03/16 07:31:09;;;;;;;13.07;6.50;;;;;;;6.71;88.01;96296.25;6298580;22;20055;-48
2022/03/16 07:33:35;;;;;;;7.22;6.50;;;;;;;6.88;87.05;96293.34;6300306;22;20015;-50
2022/03/16 07:36:01;;;;;;;14.20;7.75;;;;;;;7.07;86.33;96291.25;6300497;22;20007;-50
2022/03/16 07:38:26;;;;;;;19.30;10.00;;;;;;;7.28;85.73;96287.16;6299930;22;20058;-53
2022/03/16 07:40:52;;;;;;;18.23;9.95;;;;;;;7.53;85.27;96292.47;6297950;22;20003;-52
2022/03/16 07:43:17;;;;;;;14.60;8.75;;;;;;;7.71;84.22;96288.53;6298266;22;20359;-53
2022/03/16 07:45:43;;;;;;;11.85;8.45;;;;;;;7.86;84.10;96291.84;6272665;22;20042;-53
2022/03/16 07:48:08;;;;;;;17.55;8.02;;;;;;;8.10;83.16;96288.38;6300423;22;20000;-50
2022/03/16 07:50:34;;;;;;;10.45;7.47;;;;;;;8.34;81.94;96291.97;6300251;22;20003;-52
2022/03/16 07:53:00;;;;;;;28.60;13.60;;;;;;;8.51;81.66;96288.97;6301139;22;20521;-54
2022/03/16 07:55:26;;;;;;;19.83;13.27;;;;;;;8.68;81.58;96285.06;6299916;22;20010;-54
2022/03/16 07:57:54;;;;;;;15.65;11.77;;;;;;;8.72;81.95;96283.88;6300753;22;20046;-50
2022/03/16 08:00:20;;;;;;;17.80;8.70;;;;;;;8.84;81.43;96279.47;6300769;22;20008;-50
2022/03/16 08:02:45;;;;;;;9.25;7.32;;;;;;;8.91;81.02;96284.25;6300120;22;20142;-53
2022/03/16 08:05:12;;;;;;;11.15;7.15;;;;;;;9.19;80.75;96282.16;6300108;22;20052;-54
2022/03/16 08:07:37;;;;;;;21.48;7.57;;;;;;;9.62;78.65;96280.56;6300176;22;20019;-54
2022/03/16 08:10:04;;;;;;;14.05;6.15;;;;;;;9.87;76.71;96280.28;6300002;22;20044;-53
2022/03/16 08:12:30;;;;;;;12.93;6.13;;;;;;;10.18;74.47;96290.97;6299769;22;20007;-54
2022/03/16 08:14:55;;;;;;;11.02;5.32;;;;;;;10.48;71.29;96285.97;6300604;22;20316;-53
2022/03/16 08:17:20;;;;;;;12.60;5.35;;;;;;;10.71;70.88;96286.69;6300008;22;20007;-54
2022/03/16 08:19:46;;;;;;;9.32;4.47;;;;;;;10.81;70.99;96288.56;6300061;22;20028;-55
2022/03/16 08:22:12;;;;;;;15.68;4.45;;;;;;;10.61;69.90;96293.72;6300051;22;20003;-51
2022/03/16 08:24:37;;;;;;;7.28;3.50;;;;;;;10.72;68.88;96288.38;6299917;22;20013;-54
2022/03/16 08:27:03;;;;;;;8.13;4.28;;;;;;;10.80;68.32;96297.41;6300319;22;20003;-55
2022/03/16 08:29:28;;;;;;;9.07;4.35;;;;;;;11.03;67.93;96288.41;6299621;22;20082;-54
2022/03/16 08:31:54;;;;;;;13.40;4.57;;;;;;;11.21;67.74;96287.00;6300163;22;20456;-54
2022/03/16 08:34:19;;;;;;;10.20;3.88;;;;;;;11.25;67.27;96277.84;6300492;22;20062;-55
2022/03/16 08:36:45;;;;;;;14.18;3.28;;;;;;;11.30;66.67;96275.66;6299857;22;20029;-55
2022/03/16 08:39:10;;;;;;;9.15;3.42;;;;;;;11.23;66.18;96285.06;6300327;22;20007;-54
2022/03/16 08:41:36;;;;;;;10.68;3.60;;;;;;;11.21;66.33;96279.91;6299941;22;20060;-55
2022/03/16 08:44:02;;;;;;;12.93;3.70;;;;;;;11.31;67.05;96272.91;6300014;22;20075;-54
2022/03/16 08:46:28;;;;;;;7.22;3.17;;;;;;;11.54;65.62;96277.13;6299852;22;20075;-54
2022/03/16 08:48:54;;;;;;;9.55;3.22;;;;;;;11.56;65.82;96270.75;6300389;22;20013;-55
2022/03/16 08:51:19;;;;;;;6.22;3.80;;;;;;;11.69;64.75;96277.59;6299521;22;20078;-53
2022/03/16 08:53:45;;;;;;;12.13;4.32;;;;;;;11.75;63.53;96280.53;6299653;22;20003;-54
2022/03/16 08:56:11;;;;;;;7.90;6.35;;;;;;;11.81;62.22;96279.16;6272703;22;20011;-53
2022/03/16 08:58:37;;;;;;;8.25;5.22;;;;;;;11.83;63.70;96276.41;6299860;22;20396;-55
2022/03/16 09:01:02;;;;;;;11.18;3.72;;;;;;;12.01;62.42;96273.97;6299903;22;20013;-53
2022/03/16 09:03:28;;;;;;;8.43;3.10;;;;;;;12.16;61.03;96274.38;6299829;22;20354;-49
2022/03/16 09:05:53;;;;;;;9.18;3.33;;;;;;;12.17;59.32;96268.97;6299955;22;20056;-54
2022/03/16 09:08:19;;;;;;;7.88;3.25;;;;;;;12.21;58.79;96272.16;6299612;22;20018;-56
2022/03/16 09:10:45;;;;;;;15.43;4.18;;;;;;;12.18;59.50;96275.06;6299795;22;20003;-53
2022/03/16 09:13:10;;;;;;;10.25;3.20;;;;;;;12.52;59.46;96272.03;6299996;22;20080;-51
2022/03/16 09:15:36;;;;;;;8.88;3.42;;;;;;;12.70;59.01;96263.38;6299605;22;20351;-52
2022/03/16 09:18:02;;;;;;;11.45;3.72;;;;;;;12.86;58.40;96274.22;6299599;22;19999;-55
2022/03/16 09:20:28;;;;;;;12.40;3.00;;;;;;;12.79;57.23;96265.19;6299644;22;20437;-55
2022/03/16 09:22:53;;;;;;;9.50;3.38;;;;;;;12.94;56.42;96262.13;6300097;22;20010;-51
2022/03/16 09:25:22;;;;;;;9.68;3.22;;;;;;;12.86;56.33;96263.66;6298992;22;20008;-56
2022/03/16 09:27:47;;;;;;;4.53;2.78;;;;;;;12.82;56.19;96251.69;6299773;22;20044;-52
2022/03/16 09:30:13;;;;;;;4.18;2.90;;;;;;;12.98;54.79;96256.38;6299349;22;20007;-53
2022/03/16 09:32:39;;;;;;;14.35;3.42;;;;;;;13.10;55.51;96246.47;6299905;22;20082;-55
2022/03/16 09:35:06;;;;;;;5.50;3.35;;;;;;;13.18;55.09;96251.88;6299729;22;20003;-55
2022/03/16 09:37:32;;;;;;;6.68;2.70;;;;;;;13.21;54.94;96245.47;6299416;22;20009;-56
2022/03/16 09:39:57;;;;;;;5.05;2.88;;;;;;;13.42;54.59;96257.63;6299836;22;20042;-53
2022/03/16 09:42:24;;;;;;;12.57;3.40;;;;;;;13.44;54.05;96253.91;6299554;22;20427;-55
2022/03/16 09:44:51;;;;;;;5.95;2.97;;;;;;;13.29;53.49;96247.38;6299589;22;20048;-54
2022/03/16 09:47:18;;;;;;;8.13;2.60;;;;;;;13.23;53.98;96250.63;6299534;22;20014;-55
2022/03/16 09:49:43;;;;;;;9.23;3.35;;;;;;;13.32;53.47;96253.22;6300319;22;20462;-55
2022/03/16 09:52:09;;;;;;;14.85;2.92;;;;;;;13.26;51.81;96255.59;6302961;22;19999;-55
2022/03/16 09:54:36;;;;;;;7.22;2.78;;;;;;;13.22;52.06;96254.25;6303063;22;20003;-50
2022/03/16 09:57:01;;;;;;;11.02;3.22;;;;;;;13.45;52.83;96252.91;6303323;22;20007;-54
2022/03/16 09:59:26;;;;;;;7.40;2.95;;;;;;;13.41;51.31;96240.94;6302725;22;20020;-55
2022/03/16 10:02:06;;;;;;;21.30;3.63;;;;;;;13.91;52.51;96241.53;6303054;22;20449;-54
2022/03/16 10:04:34;;;;;;;7.60;3.03;;;;;;;14.25;52.00;96234.75;6303116;22;20074;-50
2022/03/16 10:07:00;;;;;;;10.82;2.55;;;;;;;14.38;51.26;96237.84;6302996;22;20043;-54
2022/03/16 10:15:18;;;;;;;8.73;2.50;;;;;;;14.47;49.08;96246.66;6302874;22;20018;-53
2022/03/16 10:17:51;;;;;;;13.65;3.13;;;;;;;14.50;48.98;96249.03;6302959;22;20049;-54
2022/03/16 10:20:37;;;;;;;8.13;2.75;;;;;;;14.51;50.34;96241.91;6302581;22;20011;-55
2022/03/16 10:23:03;;;;;;;8.00;3.00;;;;;;;14.66;49.72;96250.13;6302687;22;20004;-54
2022/03/16 10:25:43;;;;;;;7.10;3.30;;;;;;;14.76;49.63;96245.63;6302478;22;20407;-54
2022/03/16 10:28:12;;;;;;;7.28;3.55;;;;;;;14.98;49.06;96238.16;6302731;22;20347;-55
2022/03/16 10:31:08;;;;;;;8.50;3.67;;;;;;;14.99;50.38;96229.22;6302346;22;20090;-54
2022/03/16 10:33:48;;;;;;;7.05;3.42;;;;;;;14.92;48.58;96230.81;6302529;22;20355;-50
2022/03/16 10:36:18;;;;;;;9.50;3.70;;;;;;;14.77;50.04;96230.53;6302514;22;19999;-53
2022/03/16 10:38:51;;;;;;;6.13;2.97;;;;;;;14.97;50.54;96233.84;6302540;22;20070;-52
2022/03/16 10:47:09;;;;;;;;;;;;;;;15.27;51.37;96223.72;6303050;22;20418;-53
2022/03/16 10:49:35;;;;;;;12.25;5.05;;;;;;;15.54;50.04;96219.19;6302763;22;20438;-53
2022/03/16 10:52:05;;;;;;;12.50;4.32;;;;;;;15.66;49.58;96222.38;6302163;22;20030;-54
2022/03/16 10:54:31;;;;;;;11.50;5.78;;;;;;;15.95;49.33;96218.53;6302289;22;20003;-53
2022/03/16 10:56:58;;;;;;;16.60;5.07;;;;;;;15.73;48.78;96218.91;6303190;22;20027;-54
2022/03/16 10:59:29;;;;;;;18.75;5.22;;;;;;;15.83;48.77;96210.81;6302342;22;19999;-55
2022/03/16 11:02:04;;;;;;;8.52;4.32;;;;;;;16.35;47.08;96214.22;6300883;22;20003;-54
2022/03/16 11:04:32;;;;;;;7.63;4.50;;;;;;;16.21;48.83;96204.28;6300718;22;19999;-55
2022/03/16 11:06:59;;;;;;;9.73;4.55;;;;;;;16.24;48.14;96202.09;6300123;22;20019;-51
2022/03/16 11:09:25;;;;;;;10.82;4.35;;;;;;;16.27;47.52;96201.81;6300242;22;20079;-53
2022/03/16 11:14:36;;;;;;;10.65;5.00;;;;;;;16.41;47.53;96200.31;6300384;22;20352;-54
2022/03/16 11:17:03;;;;;;;12.32;5.97;;;;;;;16.97;45.74;96194.25;6300484;22;19999;-51
2022/03/16 11:19:29;;;;;;;11.93;4.82;;;;;;;17.78;44.91;96187.13;6300417;22;19999;-53
2022/03/16 11:22:01;;;;;;;11.93;5.63;;;;;;;17.78;45.56;96187.13;6300833;22;20003;-54
2022/03/16 11:24:29;;;;;;;13.80;5.32;;;;;;;17.75;45.27;96191.81;6300166;22;20082;-53
2022/03/16 11:27:25;;;;;;;9.75;5.63;;;;;;;17.26;45.15;96184.91;6299796;22;20070;-53
2022/03/16 11:30:17;;;;;;;8.38;4.90;;;;;;;16.76;46.31;96173.53;6300510;22;20086;-52
2022/03/16 11:32:44;;;;;;;9.40;5.53;;;;;;;17.22;45.18;96183.56;6300307;22;20011;-52
2022/03/16 11:35:12;;;;;;;13.13;4.28;;;;;;;17.16;46.20;96173.63;6300406;22;20003;-55
2022/03/16 11:37:39;;;;;;;13.15;4.88;;;;;;;17.12;45.75;96173.13;6300725;22;20007;-50
2022/03/16 11:40:10;;;;;;;8.95;4.07;;;;;;;17.03;45.02;96164.38;6300479;22;20011;-54
2022/03/16 11:42:37;;;;;;;10.95;3.85;;;;;;;17.85;44.05;96166.81;6300116;22;20008;-55
2022/03/16 11:45:33;;;;;;;13.75;3.05;;;;;;;18.11;42.83;96163.00;6300192;22;20095;-53
2022/03/16 11:47:59;;;;;;;;;;;;;;;17.55;44.34;96163.97;6301370;22;20453;-54